createdAt,value
2023-05-20T11:01:40.818Z,88.30
2023-05-20T11:04:09.763Z,88.30
2023-05-20T11:06:37.983Z,87.90
2023-05-20T11:09:07.743Z,86.80
2023-05-20T11:11:38.634Z,85.70
2023-05-20T11:14:06.866Z,86.00
2023-05-20T11:16:35.053Z,89.50
2023-05-20T11:19:04.671Z,86.90
2023-05-20T11:21:32.863Z,88.60
2023-05-20T11:24:01.098Z,84.70
2023-05-20T11:26:31.939Z,86.00
2023-05-20T11:29:01.411Z,86.40
2023-05-20T11:31:29.912Z,86.70
2023-05-20T11:33:57.960Z,88.60
2023-05-20T11:36:28.843Z,87.70
2023-05-20T11:38:59.202Z,84.30
2023-05-20T11:41:28.763Z,82.30
2023-05-20T11:43:59.093Z,85.10
2023-05-20T11:46:27.727Z,82.10
2023-05-20T11:48:56.204Z,83.70
2023-05-20T11:51:26.175Z,84.80
2023-05-20T11:54:01.991Z,89.50
2023-05-20T11:56:31.112Z,85.10
2023-05-20T11:59:00.460Z,86.50
2023-05-20T12:01:30.713Z,85.40
2023-05-20T12:03:59.067Z,85.90
2023-05-20T12:06:27.263Z,85.80
2023-05-20T12:08:56.745Z,86.30
2023-05-20T12:11:24.823Z,83.50
2023-05-20T12:13:53.927Z,84.40
2023-05-20T12:16:22.048Z,85.50
2023-05-20T12:18:50.207Z,86.40
2023-05-20T12:21:18.291Z,89.60
2023-05-20T12:23:46.516Z,87.60
2023-05-20T12:26:16.120Z,86.50
2023-05-20T12:28:45.157Z,82.00
2023-05-20T12:31:13.283Z,83.90
2023-05-20T12:33:41.308Z,83.00
2023-05-20T12:36:10.367Z,82.30
2023-05-20T12:38:38.389Z,80.00
2023-05-20T12:41:06.520Z,79.60
2023-05-20T12:43:37.459Z,83.00
2023-05-20T12:46:06.002Z,80.60
2023-05-20T12:48:34.294Z,82.10
2023-05-20T12:51:02.426Z,83.00
2023-05-20T12:53:30.587Z,84.80
2023-05-20T12:55:58.714Z,82.30
2023-05-20T12:58:26.766Z,83.60
2023-05-20T13:00:56.231Z,85.10
2023-05-20T13:03:25.191Z,87.20
2023-05-20T13:05:53.321Z,88.90
2023-05-20T13:08:21.386Z,88.20
2023-05-20T13:10:49.438Z,88.90
2023-05-20T13:13:21.547Z,87.30
2023-05-20T13:15:50.404Z,86.70
2023-05-20T13:18:20.081Z,89.10
2023-05-20T13:20:48.288Z,88.90
2023-05-20T13:23:16.714Z,87.50
2023-05-20T13:25:45.310Z,88.90
2023-05-20T13:28:16.718Z,88.00
2023-05-20T13:30:44.958Z,88.20
2023-05-20T13:33:13.054Z,88.80
2023-05-20T13:35:42.594Z,89.70
2023-05-20T13:38:11.222Z,90.00
2023-05-20T13:40:39.330Z,87.90
2023-05-20T13:43:07.416Z,87.80
2023-05-20T13:45:35.465Z,88.90
2023-05-20T13:48:03.949Z,88.90
2023-05-20T13:50:32.025Z,89.50
2023-05-20T13:53:01.466Z,90.00
2023-05-20T13:55:29.598Z,90.10
2023-05-20T13:57:57.614Z,90.50
2023-05-20T14:00:25.879Z,90.30
2023-05-20T14:02:54.537Z,89.40
2023-05-20T14:05:23.195Z,88.90
2023-05-20T14:07:51.256Z,89.30
2023-05-20T14:10:20.799Z,89.30
2023-05-20T14:12:48.940Z,88.90
2023-05-20T14:15:17.329Z,88.10
2023-05-20T14:17:45.818Z,90.00
2023-05-20T14:20:14.028Z,90.70
2023-05-20T14:22:43.172Z,90.10
2023-05-20T14:25:12.083Z,90.70
2023-05-20T14:27:42.165Z,91.00
2023-05-20T14:30:11.417Z,91.80
2023-05-20T14:32:39.663Z,91.30
2023-05-20T14:35:08.909Z,92.60
2023-05-20T14:37:37.045Z,90.90
2023-05-20T14:40:07.519Z,92.00
2023-05-20T14:42:35.759Z,93.20
2023-05-20T14:45:06.094Z,92.00
2023-05-20T14:47:34.300Z,92.00
2023-05-20T14:50:02.546Z,92.00
2023-05-20T14:52:30.605Z,91.50
2023-05-20T14:54:58.800Z,91.00
2023-05-20T14:57:26.898Z,90.60
2023-05-20T14:59:54.970Z,91.50
2023-05-20T15:02:24.561Z,90.60
2023-05-20T15:04:52.803Z,90.00
2023-05-20T15:07:20.774Z,91.20
2023-05-20T15:09:50.019Z,90.50
2023-05-20T15:12:18.128Z,90.10
2023-05-20T15:14:46.460Z,90.40
2023-05-20T15:17:14.663Z,90.00
2023-05-20T15:19:44.303Z,90.20
2023-05-20T15:22:12.326Z,90.00
2023-05-20T15:24:40.583Z,90.30
2023-05-20T15:27:08.719Z,90.30
2023-05-20T15:29:38.639Z,91.20
2023-05-20T15:32:07.737Z,91.40
2023-05-20T15:34:35.850Z,91.00
2023-05-20T15:37:05.504Z,91.30
2023-05-20T15:39:33.545Z,91.80
2023-05-20T15:42:02.929Z,91.80
2023-05-20T15:44:30.982Z,92.50
2023-05-20T15:46:59.088Z,92.10
2023-05-20T15:49:27.150Z,92.20
2023-05-20T15:52:02.979Z,92.40
2023-05-20T15:54:33.883Z,92.50
2023-05-20T15:57:02.781Z,92.90
2023-05-20T15:59:30.983Z,93.20
2023-05-20T16:02:01.635Z,93.50
2023-05-20T16:04:29.903Z,93.60
2023-05-20T16:06:58.101Z,93.90
2023-05-20T16:09:26.243Z,94.50
2023-05-20T16:11:56.121Z,96.20
2023-05-20T16:14:24.238Z,95.90
2023-05-20T16:16:52.369Z,95.70
2023-05-20T16:19:20.455Z,96.20
2023-05-20T16:21:49.139Z,96.90
2023-05-20T16:24:17.557Z,97.00
2023-05-20T16:26:45.662Z,97.50
2023-05-20T16:29:16.607Z,97.70
2023-05-20T16:31:47.025Z,98.00
2023-05-20T16:34:15.912Z,98.10
2023-05-20T16:36:45.158Z,98.40
2023-05-20T16:39:13.459Z,98.40
2023-05-20T16:41:41.968Z,98.40
2023-05-20T16:44:10.424Z,98.90
2023-05-20T16:46:40.051Z,99.10
2023-05-20T16:49:08.307Z,99.60
2023-05-20T16:51:36.445Z,99.90
2023-05-20T16:54:05.008Z,99.90
2023-05-20T16:56:33.457Z,99.90
2023-05-20T16:59:01.726Z,99.90
2023-05-20T17:01:29.995Z,99.90
2023-05-20T17:03:59.560Z,99.90
2023-05-20T17:06:27.726Z,99.90
2023-05-20T17:08:56.751Z,99.90
2023-05-20T17:11:24.981Z,99.90
2023-05-20T17:13:53.131Z,99.90
2023-05-20T17:16:21.676Z,99.90
2023-05-20T17:18:49.844Z,99.90
2023-05-20T17:21:20.790Z,99.90
2023-05-20T17:23:49.195Z,99.90
2023-05-20T17:26:17.763Z,99.90
2023-05-20T17:28:45.952Z,99.90
2023-05-20T17:31:14.134Z,99.90
2023-05-20T17:33:42.278Z,99.90
2023-05-20T17:36:10.684Z,99.90
2023-05-20T17:38:40.162Z,99.90
2023-05-20T17:41:08.296Z,99.90
2023-05-20T17:43:36.406Z,99.90
2023-05-20T17:46:04.895Z,99.90
2023-05-20T17:48:33.524Z,99.90
2023-05-20T17:51:01.890Z,99.90
2023-05-20T17:53:30.067Z,99.90
2023-05-20T17:55:59.504Z,99.90
2023-05-20T17:58:27.655Z,99.90
2023-05-20T18:00:55.743Z,99.90
2023-05-20T18:03:24.067Z,99.90
2023-05-20T18:05:54.475Z,99.90
2023-05-20T18:08:25.416Z,99.90
2023-05-20T18:10:54.794Z,99.90
2023-05-20T18:13:24.311Z,99.90
2023-05-20T18:15:52.723Z,99.90
2023-05-20T18:18:20.912Z,99.90
2023-05-20T18:20:49.966Z,99.90
2023-05-20T18:23:18.053Z,99.90
2023-05-20T18:25:46.162Z,99.90
2023-05-20T18:28:14.336Z,99.90
2023-05-20T18:30:43.951Z,99.90
2023-05-20T18:33:12.114Z,99.90
2023-05-20T18:35:40.243Z,99.90
2023-05-20T18:38:08.517Z,99.90
2023-05-20T18:40:36.788Z,99.90
2023-05-20T18:43:05.207Z,99.90
2023-05-20T18:45:33.368Z,99.90
2023-05-20T18:48:03.355Z,99.90
2023-05-20T18:50:31.538Z,99.90
2023-05-20T18:52:59.881Z,99.90
2023-05-20T18:55:28.251Z,99.90
2023-05-20T18:57:56.434Z,99.90
2023-05-20T19:00:24.595Z,99.90
2023-05-20T19:02:53.345Z,99.90
2023-05-20T19:05:23.162Z,99.90
2023-05-20T19:07:51.969Z,99.90
2023-05-20T19:10:20.256Z,99.90
2023-05-20T19:12:48.331Z,99.90
2023-05-20T19:15:18.954Z,99.90
2023-05-20T19:17:47.101Z,99.90
2023-05-20T19:20:15.259Z,99.90
2023-05-20T19:22:44.804Z,99.90
2023-05-20T19:25:12.967Z,99.90
2023-05-20T19:27:41.403Z,99.90
2023-05-20T19:30:11.021Z,99.90
2023-05-20T19:32:39.708Z,99.90
2023-05-20T19:35:08.456Z,99.90
2023-05-20T19:37:36.614Z,99.90
2023-05-20T19:40:08.280Z,99.90
2023-05-20T19:42:36.468Z,99.90
2023-05-20T19:45:05.048Z,99.90
2023-05-20T19:47:33.197Z,99.90
2023-05-20T19:50:01.513Z,99.90
2023-05-20T19:52:29.942Z,99.90
2023-05-20T19:54:58.335Z,99.90
2023-05-20T19:57:28.150Z,99.90
2023-05-20T19:59:56.507Z,99.90
2023-05-20T20:02:24.669Z,99.90
2023-05-20T20:04:52.791Z,99.90
2023-05-20T20:07:20.931Z,99.90
2023-05-20T20:09:51.657Z,99.90
2023-05-20T20:12:19.795Z,99.90
2023-05-20T20:14:49.439Z,99.90
2023-05-20T20:17:17.688Z,99.90
2023-05-20T20:19:48.403Z,99.90
2023-05-20T20:22:17.088Z,99.90
2023-05-20T20:24:45.218Z,99.90
2023-05-20T20:27:13.887Z,99.90
2023-05-20T20:29:42.172Z,99.90
2023-05-20T20:32:11.876Z,99.90
2023-05-20T20:34:40.171Z,99.90
2023-05-20T20:37:08.263Z,99.90
2023-05-20T20:39:37.284Z,99.90
2023-05-20T20:42:05.845Z,99.90
2023-05-20T20:44:33.968Z,99.90
2023-05-20T20:47:04.385Z,99.90
2023-05-20T20:49:34.245Z,99.90
2023-05-20T20:52:03.906Z,99.90
2023-05-20T20:54:32.774Z,99.90
2023-05-20T20:57:02.822Z,99.90
2023-05-20T20:59:32.017Z,99.90
2023-05-20T21:02:00.567Z,99.90
2023-05-20T21:04:29.377Z,99.90
2023-05-20T21:07:02.033Z,99.90
2023-05-20T21:09:30.595Z,99.90
2023-05-20T21:12:00.421Z,99.90
2023-05-20T21:14:28.606Z,99.90
2023-05-20T21:16:56.889Z,99.90
2023-05-20T21:19:25.631Z,99.90
2023-05-20T21:21:53.799Z,99.90
2023-05-20T21:24:23.293Z,99.90
2023-05-20T21:26:51.444Z,99.90
2023-05-20T21:29:19.634Z,99.90
2023-05-20T21:31:47.922Z,99.90
2023-05-20T21:34:16.139Z,99.90
2023-05-20T21:36:44.242Z,99.90
2023-05-20T21:39:12.309Z,99.90
2023-05-20T21:41:41.989Z,99.90
2023-05-20T21:44:10.794Z,99.90
2023-05-20T21:46:39.020Z,99.90
2023-05-20T21:49:07.297Z,99.90
2023-05-20T21:51:36.032Z,99.90
2023-05-20T21:54:04.161Z,99.90
2023-05-20T21:56:32.355Z,99.90
2023-05-20T21:59:01.969Z,99.90
2023-05-20T22:01:30.233Z,99.90
2023-05-20T22:03:58.485Z,99.90
2023-05-20T22:06:26.901Z,99.90
2023-05-20T22:08:55.200Z,99.90
2023-05-20T22:11:23.934Z,99.90
2023-05-20T22:13:53.749Z,99.90
2023-05-20T22:16:24.696Z,99.90
2023-05-20T22:18:53.976Z,99.90
2023-05-20T22:21:22.714Z,99.90
2023-05-20T22:23:51.080Z,99.90
2023-05-20T22:26:19.763Z,99.90
2023-05-20T22:28:48.273Z,99.90
2023-05-20T22:31:16.345Z,99.90
2023-05-20T22:33:45.859Z,99.90
2023-05-20T22:36:14.556Z,99.90
2023-05-20T22:38:42.871Z,99.90
2023-05-20T22:41:11.043Z,99.90
2023-05-20T22:43:39.255Z,99.90
2023-05-20T22:46:07.403Z,99.90
2023-05-20T22:48:35.606Z,99.90
2023-05-20T22:51:05.810Z,99.90
2023-05-20T22:53:34.333Z,99.90
2023-05-20T22:56:02.351Z,99.90
2023-05-20T22:58:33.669Z,99.90
2023-05-20T23:01:01.790Z,99.90
2023-05-20T23:03:29.999Z,99.90
2023-05-20T23:05:58.266Z,99.90
2023-05-20T23:08:27.794Z,99.90
2023-05-20T23:10:56.055Z,99.90
2023-05-20T23:13:24.100Z,99.90
2023-05-20T23:15:52.200Z,99.90
2023-05-20T23:18:20.621Z,99.90
2023-05-20T23:20:48.728Z,99.90
2023-05-20T23:23:19.271Z,99.90
2023-05-20T23:25:54.674Z,99.90
2023-05-20T23:28:22.846Z,99.90
2023-05-20T23:30:51.055Z,99.90
2023-05-20T23:33:24.320Z,99.90
2023-05-20T23:35:53.072Z,99.90
2023-05-20T23:38:21.232Z,99.90
2023-05-20T23:40:49.724Z,99.90
2023-05-20T23:43:19.126Z,99.90
2023-05-20T23:45:47.310Z,99.90
2023-05-20T23:48:17.784Z,99.90
2023-05-20T23:50:46.148Z,99.90
2023-05-20T23:53:14.405Z,99.90
2023-05-20T23:55:45.209Z,99.90
2023-05-20T23:58:13.302Z,99.90
